Latest Coastal Weather Observations for Swanbourne

IDW60701

Issued at 12:03 pm WST Sunday 20 August 2017 (issued every 10 minutes, with the page automatically refreshed every 10 minutes)

About coastal observations | Map of coastal stations | Coastal observations for WA | Marine services | Other Formats
Station Details ID: 009215 Name: SWANBOURNE Lat: -31.96 Lon: 115.76 Height: 40.96 m
Data from the previous 72 hours. | See also: Recent months at Swanbourne
Date/Time
WST
Temp
°C
Wind Pressure Rain since
9am
mm
Weather Cloud Vis
km
Sea
Height
m
Swell
Dir  Spd
kts
Gust
kts
hPa Trend Height
m
Period
s
Dir
20/12:00pm 15.3 SSW 10 18 - - 0.0 - - - - - - -
20/11:30am 16.3 S 8 12 - - 0.0 - - - - - - -
20/11:00am 15.7 SSE 8 13 - - 0.0 - - - - - - -
20/10:30am 14.8 SSE 9 15 - - 0.0 - - - - - - -
20/10:00am 14.3 SSE 10 14 - - 0.0 - - - - - - -
20/09:30am 13.9 SSE 8 14 - - 0.0 - - - - - - -
20/09:00am 13.4 SE 8 13 - - 0.2 - - - - - - -
20/08:30am 12.7 SE 6 11 - - 0.2 - - - - - - -
20/08:00am 11.8 SE 5 7 - - 0.2 - - - - - - -
20/07:30am 11.4 ESE 5 8 - - 0.2 - - - - - - -
20/07:00am 11.3 SE 5 10 - - 0.2 - - - - - - -
20/06:30am 11.4 SSE 4 6 - - 0.2 - - - - - - -
20/06:00am 11.3 SSE 6 10 - - 0.2 - - - - - - -
20/05:30am 11.3 SSE 5 7 - - 0.2 - - - - - - -
20/05:00am 11.3 SSE 6 9 - - 0.2 - - - - - - -
20/04:30am 11.1 SE 6 9 - - 0.2 - - - - - - -
20/04:00am 11.2 SE 6 9 - - 0.2 - - - - - - -
20/03:30am 11.3 SE 6 10 - - 0.2 - - - - - - -
20/03:00am 11.4 SSE 7 13 - - 0.2 - - - - - - -
20/02:30am 11.7 SSE 7 12 - - 0.2 - - - - - - -
20/02:00am 11.7 SSE 7 13 - - 0.2 - - - - - - -
20/01:30am 12.0 SSE 7 11 - - 0.2 - - - - - - -
20/01:00am 12.2 S 9 13 - - 0.2 - - - - - - -
20/12:30am 12.1 S 8 14 - - 0.2 - - - - - - -
20/12:00am 12.0 S 9 14 - - 0.2 - - - - - - -
 
Date/Time
WST
Temp
°C
Wind Pressure Rain since
9am
mm
Weather Cloud Vis
km
Sea
Height
m
Swell
Dir  Spd
kts
Gust
kts
hPa Trend Height
m
Period
s
Dir
19/11:30pm 12.6 S 10 17 - - 0.2 - - - - - - -
19/11:00pm 12.8 S 10 17 - - 0.2 - - - - - - -
19/10:30pm 13.0 S 9 19 - - 0.2 - - - - - - -
19/10:00pm 13.1 S 12 20 - - 0.2 - - - - - - -
19/09:30pm 13.1 S 14 21 - - 0.2 - - - - - - -
19/09:00pm 13.0 S 10 18 - - 0.0 - - - - - - -
19/08:30pm 13.2 S 10 16 - - 0.0 - - - - - - -
19/08:00pm 13.8 SSW 14 22 - - 0.0 - - - - - - -
19/07:30pm 14.0 SSW 11 20 - - 0.0 - - - - - - -
19/07:00pm 13.6 S 12 19 - - 0.0 - - - - - - -
19/06:30pm 13.7 SSW 12 19 - - 0.0 - - - - - - -
19/06:00pm 13.4 SW 12 20 - - 0.0 - - - - - - -
19/05:30pm 14.0 SW 13 21 - - 0.0 - - - - - - -
19/05:00pm 14.5 SSW 14 21 - - 0.0 - - - - - - -
19/04:30pm 14.6 SSW 13 21 - - 0.0 - - - - - - -
19/04:00pm 14.7 SW 14 22 - - 0.0 - - - - - - -
19/03:30pm 15.1 WSW 13 19 - - 0.0 - - - - - - -
19/03:00pm 16.0 WSW 14 20 - - 0.0 - - - - - - -
19/02:30pm 16.1 WSW 13 19 - - 0.0 - - - - - - -
19/02:00pm 15.8 SW 11 17 - - 0.0 - - - - - - -
19/01:30pm 15.2 WSW 15 29 - - 0.0 - - - - - - -
19/01:29pm 15.3 WSW 15 29 - - 0.0 - - - - - - -
19/01:00pm 17.1 WSW 11 16 - - 0.0 - - - - - - -
19/12:30pm 16.7 WSW 8 11 - - 0.0 - - - - - - -
19/12:00pm 16.2 SW 8 11 - - 0.0 - - - - - - -
19/11:30am 15.7 WSW 6 12 - - 0.0 - - - - - - -
19/11:00am 16.2 W 3 6 - - 0.0 - - - - - - -
19/10:30am 15.2 WNW 2 5 - - 0.0 - - - - - - -
19/10:00am 14.7 NNW 2 4 - - 0.0 - - - - - - -
19/09:30am 14.0 NNE 4 6 - - 0.0 - - - - - - -
19/09:00am 12.7 NE 2 4 - - 16.4 - - - - - - -
19/08:30am 12.3 NE 3 5 - - 16.4 - - - - - - -
19/08:00am 11.0 NE 4 7 - - 16.4 - - - - - - -
19/07:30am 10.3 NNE 4 6 - - 16.4 - - - - - - -
19/07:00am 10.4 NE 4 5 - - 16.4 - - - - - - -
19/06:30am 10.7 E 5 6 - - 16.2 - - - - - - -
19/06:00am 10.6 E 3 3 - - 15.8 Recent precip. - - - - - -
19/05:30am 10.8 ESE 2 3 - - 15.8 - - - - - - -
19/05:00am 11.2 WSW 8 13 - - 9.4 - - - - - - -
19/04:30am 11.1 ENE 4 5 - - 8.0 - - - - - - -
19/04:00am 11.4 ENE 3 3 - - 8.0 - - - - - - -
19/03:30am 11.5 W 3 6 - - 7.8 - - - - - - -
19/03:00am 11.4 E 2 3 - - 4.8 Rain - - - - - -
19/02:30am 11.2 ENE 4 4 - - 2.8 - - - - - - -
19/02:00am 11.4 E 2 2 - - 2.8 - - - - - - -
19/01:30am 11.6 SE 2 3 - - 2.8 - - - - - - -
19/01:00am 11.9 CALM 0 0 - - 2.8 - - - - - - -
19/12:30am 12.1 WNW 2 3 - - 2.8 - - - - - - -
19/12:00am 12.2 NW 3 4 - - 2.6 Recent precip. - - - - - -
 
Date/Time
WST
Temp
°C
Wind Pressure Rain since
9am
mm
Weather Cloud Vis
km
Sea
Height
m
Swell
Dir  Spd
kts
Gust
kts
hPa Trend Height
m
Period
s
Dir
18/11:30pm 12.1 WNW 5 9 - - 2.4 - - - - - - -
18/11:00pm 12.4 N 2 3 - - 2.0 - - - - - - -
18/10:30pm 12.5 W 1 3 - - 2.0 - - - - - - -
18/10:00pm 12.4 ENE 2 3 - - 1.6 - - - - - - -
18/09:30pm 12.7 ENE 3 4 - - 1.6 - - - - - - -
18/09:00pm 12.9 E 3 4 - - 1.4 Rain - - - - - -
18/08:30pm 13.2 ESE 3 4 - - 0.8 - - - - - - -
18/08:00pm 13.3 ESE 4 6 - - 0.4 - - - - - - -
18/07:30pm 13.6 ESE 4 5 - - 0.4 - - - - - - -
18/07:00pm 13.8 SSE 2 4 - - 0.2 - - - - - - -
18/06:30pm 14.0 SSW 5 7 - - 0.0 - - - - - - -
18/06:00pm 14.4 SSW 7 10 - - 0.0 - - - - - - -
18/05:30pm 14.7 WSW 9 12 - - 0.0 - - - - - - -
18/05:00pm 15.9 W 9 16 - - 0.0 - - - - - - -
18/04:30pm 16.9 NW 7 12 - - 0.0 - - - - - - -
18/04:00pm 17.9 NW 8 11 - - 0.0 - - - - - - -
18/03:30pm 18.7 NW 7 9 - - 0.0 - - - - - - -
18/03:00pm 19.6 NW 7 9 - - 0.0 - - - - - - -
18/02:30pm 19.2 NW 6 9 - - 0.0 - - - - - - -
18/02:00pm 17.7 NW 9 13 - - 0.0 - - - - - - -
18/01:30pm 17.9 NW 10 13 - - 0.0 - - - - - - -
18/01:00pm 18.6 NW 9 13 - - 0.0 - - - - - - -
18/12:30pm 18.1 NW 7 10 - - 0.0 - - - - - - -
18/12:00pm 18.3 NW 8 11 - - 0.0 - - - - - - -
18/11:30am 17.6 NW 9 12 - - 0.0 - - - - - - -
18/11:00am 17.8 NW 8 11 - - 0.0 - - - - - - -
18/10:30am 17.6 NNW 6 10 - - 0.0 - - - - - - -
18/10:00am 16.4 NNE 6 10 - - 0.0 - - - - - - -
18/09:30am 15.4 NNE 5 9 - - 0.0 - - - - - - -
18/09:00am 14.2 NE 6 12 - - 2.0 - - - - - - -
18/08:30am 12.9 NE 7 11 - - 2.0 - - - - - - -
18/08:00am 11.3 NE 9 13 - - 2.0 - - - - - - -
18/07:30am 10.1 NE 8 11 - - 2.0 - - - - - - -
18/07:00am 9.8 NE 7 10 - - 2.0 - - - - - - -
18/06:30am 10.3 NE 8 11 - - 2.0 - - - - - - -
18/06:00am 10.7 NE 7 12 - - 2.0 - - - - - - -
18/05:30am 10.9 ENE 6 9 - - 2.0 - - - - - - -
18/05:00am 11.2 NNE 5 7 - - 2.0 - - - - - - -
18/04:30am 11.1 NE 6 9 - - 2.0 - - - - - - -
18/04:00am 10.5 NE 7 10 - - 2.0 - - - - - - -
18/03:30am 10.7 ENE 4 7 - - 2.0 - - - - - - -
18/03:00am 11.2 NNE 5 7 - - 2.0 - - - - - - -
18/02:30am 10.9 NNE 6 9 - - 2.0 - - - - - - -
18/02:00am 11.2 NNE 4 5 - - 2.0 - - - - - - -
18/01:30am 11.6 NNE 5 7 - - 1.8 - - - - - - -
18/01:00am 11.6 NE 5 8 - - 1.8 - - - - - - -
18/12:30am 12.9 NNE 8 14 - - 1.6 - - - - - - -
18/12:00am 12.2 NE 5 8 - - 1.6 - - - - - - -
 
Date/Time
WST
Temp
°C
Wind Pressure Rain since
9am
mm
Weather Cloud Vis
km
Sea
Height
m
Swell
Dir  Spd
kts
Gust
kts
hPa Trend Height
m
Period
s
Dir
17/11:30pm 12.9 N 5 8 - - 1.6 - - - - - - -
17/11:00pm 12.5 NNE 5 8 - - 1.6 - - - - - - -
17/10:30pm 12.4 N 8 13 - - 1.6 - - - - - - -
17/10:00pm 12.3 NNE 5 8 - - 1.6 - - - - - - -
17/09:30pm 12.7 N 7 12 - - 1.2 - - - - - - -
17/09:00pm 13.6 NNW 10 18 - - 1.0 Recent precip. - - - - - -
17/08:30pm 13.7 N 4 7 - - 0.8 - - - - - - -
17/08:00pm 14.7 N 7 11 - - 0.8 - - - - - - -
17/07:30pm 15.1 NNW 8 13 - - 0.8 - - - - - - -
17/07:00pm 15.4 NNW 10 18 - - 0.8 - - - - - - -
17/06:30pm 15.4 NNW 10 17 - - 0.8 - - - - - - -
17/06:00pm 15.3 NW 12 16 - - 0.8 - - - - - - -
17/05:30pm 14.9 NNW 9 13 - - 0.8 - - - - - - -
17/05:00pm 15.9 NNW 10 15 - - 0.8 - - - - - - -
17/04:30pm 16.4 NW 12 17 - - 0.8 - - - - - - -
17/04:00pm 16.7 NW 11 17 - - 0.8 - - - - - - -
17/03:30pm 16.5 NNW 11 16 - - 0.8 - - - - - - -
17/03:00pm 16.5 NNW 11 16 - - 0.8 - - - - - - -
17/02:30pm 16.1 NNW 12 18 - - 0.8 - - - - - - -
17/02:00pm 16.6 NNW 12 18 - - 0.8 - - - - - - -
17/01:30pm 16.7 NNW 12 17 - - 0.8 - - - - - - -
17/01:00pm 16.2 NNW 8 12 - - 0.8 - - - - - - -
17/12:30pm 16.1 NNW 7 11 - - 0.8 - - - - - - -

Other Formats:

Comma delimited format used in spreadsheet applications
http://www.bom.gov.au/fwo/IDW60701/IDW60701.94614.axf

JavaScript Object Notation format (JSON) in row-major order
http://www.bom.gov.au/fwo/IDW60701/IDW60701.94614.json